Time;durP1;ratioP1;P1;durP2;ratioP2;P2;SDS_P1;SDS_P2;PMS_P1;PMS_P2;Temp;Humidity;BMP_temperature;BMP_pressure;BME280_temperature;BME280_humidity;BME280_pressure;Samples;Min_cycle;Max_cycle;Signal;HPM_P1;HPM_P2
2022/01/26 00:00:56;;;;;;;;;;;;;;;-18.79;47.10;97638.56;6318793;28;20309;-61
2022/01/26 00:07:18;;;;;;;;;;;;;;;-18.83;47.00;97634.13;6325822;28;19944;-58
2022/01/26 00:10:19;;;;;;;;;;;;;;;-18.86;47.16;97631.44;6316543;28;20336;-60
2022/01/26 00:13:23;;;;;;;;;;;;;;;-18.90;48.18;97629.53;6310865;28;19924;-58
2022/01/26 00:19:44;;;;;;;;;;;;;;;-18.94;50.32;97632.63;6326803;28;19924;-60
2022/01/26 00:26:10;;;;;;;;;;;;;;;-18.93;49.70;97619.31;6333457;28;19930;-57
2022/01/26 00:29:16;;;;;;;;;;;;;;;-18.96;48.76;97624.13;6327996;28;19924;-59
2022/01/26 00:39:03;;;;;;;;;;;;;;;-19.12;48.09;97613.16;6332265;28;19938;-60
2022/01/26 00:42:04;;;;;;;;;;;;;;;-19.17;48.82;97612.00;6333700;28;19924;-60
2022/01/26 00:45:06;;;;;;;;;;;;;;;-19.19;48.34;97622.72;6335499;28;20297;-60
2022/01/26 00:48:09;;;;;;;;;;;;;;;-19.19;47.67;97618.56;6319536;28;19947;-62
2022/01/26 00:51:14;;;;;;;;;;;;;;;-19.20;47.48;97613.47;6330788;28;19939;-60
2022/01/26 00:54:18;;;;;;;;;;;;;;;-19.25;47.64;97620.69;6332657;28;19923;-61
2022/01/26 00:57:19;;;;;;;;;;;;;;;-19.31;47.48;97617.81;6327827;28;20420;-60
2022/01/26 01:00:24;;;;;;;;;;;;;;;-19.36;47.24;97611.66;6327558;28;20018;-62
2022/01/26 01:03:26;;;;;;;;;;;;;;;-19.42;47.76;97611.28;6332485;28;20024;-62
2022/01/26 01:06:31;;;;;;;;;;;;;;;-19.45;47.85;97611.09;6332842;28;19924;-62
2022/01/26 01:09:37;;;;;;;;;;;;;;;-19.46;48.02;97615.22;6328146;28;19924;-62
2022/01/26 01:12:42;;;;;;;;;;;;;;;-19.48;47.37;97612.63;6338445;28;19923;-62
2022/01/26 01:15:47;;;;;;;;;;;;;;;-19.50;47.14;97619.19;6296272;28;20043;-62
2022/01/26 01:32:10;;;;;;;;;;;;;;;-19.71;47.52;97622.88;6335062;28;20318;-61
2022/01/26 01:35:13;;;;;;;;;;;;;;;-19.72;47.73;97627.03;6337381;28;19924;-61
2022/01/26 01:38:18;;;;;;;;;;;;;;;-19.74;47.71;97617.66;6335460;28;19923;-62
2022/01/26 01:41:22;;;;;;;;;;;;;;;-19.77;47.47;97625.84;6337980;28;19938;-61
2022/01/26 01:44:23;;;;;;;;;;;;;;;-19.78;47.98;97625.78;6341042;28;20026;-61
2022/01/26 01:47:27;;;;;;;;;;;;;;;-19.78;47.82;97620.78;6323160;28;20339;-63
2022/01/26 01:50:28;;;;;;;;;;;;;;;-19.82;48.12;97623.81;6329973;28;19935;-62
2022/01/26 01:53:38;;;;;;;;;;;;;;;-19.86;47.68;97611.91;6329533;28;19930;-61
2022/01/26 01:56:41;;;;;;;;;;;;;;;-19.90;48.24;97620.81;6335877;28;19935;-62
2022/01/26 01:59:43;;;;;;;;;;;;;;;-19.90;48.21;97614.94;6317300;28;19939;-62
2022/01/26 02:02:44;;;;;;;;;;;;;;;-19.95;47.51;97608.03;6321651;28;19935;-61
2022/01/26 02:05:47;;;;;;;;;;;;;;;-19.97;47.88;97609.56;6325094;28;19924;-63
2022/01/26 02:08:48;;;;;;;;;;;;;;;-19.99;47.90;97612.72;6336569;28;19931;-62
2022/01/26 02:11:52;;;;;;;;;;;;;;;-20.00;48.28;97614.38;6339495;28;19924;-61
2022/01/26 02:15:04;;;;;;;;;;;;;;;-20.00;47.68;97608.50;6335803;28;19931;-62
2022/01/26 02:51:39;;;;;;;;;;;;;;;-20.13;47.95;97615.97;6313142;28;19928;-62
2022/01/26 02:55:05;;;;;;;;;;;;;;;-20.14;47.99;97630.13;6327776;28;19932;-62
2022/01/26 03:10:50;;;;;;;;;;;;;;;-20.20;48.24;97620.59;6330011;28;19928;-62
2022/01/26 03:13:58;;;;;;;;;;;;;;;-20.20;48.45;97609.72;6331602;28;19928;-62
2022/01/26 03:17:10;;;;;;;;;;;;;;;-20.21;48.85;97622.97;6330794;28;20315;-61
2022/01/26 03:20:14;;;;;;;;;;;;;;;-20.22;48.06;97617.13;6340907;28;19931;-61
2022/01/26 03:29:58;;;;;;;;;;;;;;;-20.20;48.40;97602.22;6325608;28;19924;-62
2022/01/26 03:36:12;;;;;;;;;;;;;;;-20.19;48.15;97601.44;6326519;28;19931;-59
2022/01/26 03:39:15;;;;;;;;;;;;;;;-20.24;48.63;97596.09;6327488;28;19924;-63
2022/01/26 03:42:16;;;;;;;;;;;;;;;-20.27;48.36;97592.56;6331894;28;20022;-62
2022/01/26 03:45:17;;;;;;;;;;;;;;;-20.26;48.93;97601.81;6326353;28;20162;-62
2022/01/26 03:48:21;;;;;;;;;;;;;;;-20.27;48.17;97597.56;6325928;28;19924;-62
2022/01/26 03:51:22;;;;;;;;;;;;;;;-20.26;48.81;97599.31;6326080;28;19924;-62
2022/01/26 03:54:25;;;;;;;;;;;;;;;-20.25;49.05;97596.88;6332742;28;19932;-62
2022/01/26 03:57:28;;;;;;;;;;;;;;;-20.22;48.71;97601.22;6327436;28;19928;-61
2022/01/26 04:00:29;;;;;;;;;;;;;;;-20.21;48.67;97597.94;6330642;28;19938;-62
2022/01/26 04:03:33;;;;;;;;;;;;;;;-20.20;48.44;97599.69;6317105;28;19924;-62
2022/01/26 04:06:36;;;;;;;;;;;;;;;-20.21;48.35;97600.44;6326315;28;19946;-62
2022/01/26 04:09:37;;;;;;;;;;;;;;;-20.17;48.23;97599.91;6337142;28;20305;-62
2022/01/26 04:12:39;;;;;;;;;;;;;;;-20.16;48.46;97591.59;6332366;28;19923;-62
2022/01/26 04:15:42;;;;;;;;;;;;;;;-20.11;48.46;97594.41;6330732;28;20451;-61
2022/01/26 04:18:44;;;;;;;;;;;;;;;-20.06;48.41;97600.59;6324543;28;19924;-61
2022/01/26 04:25:06;;;;;;;;;;;;;;;-19.91;48.09;97599.06;6325480;28;19931;-61
2022/01/26 04:28:11;;;;;;;;;;;;;;;-19.84;47.69;97600.31;6325067;28;19931;-61
2022/01/26 04:31:16;;;;;;;;;;;;;;;-19.76;47.67;97605.03;6327548;28;19924;-62
2022/01/26 04:34:17;;;;;;;;;;;;;;;-19.61;47.89;97599.22;6331734;28;19924;-61
2022/01/26 04:37:54;;;;;;;;;;;;;;;-19.44;47.51;97602.78;6329028;28;19928;-61
2022/01/26 04:44:06;;;;;;;;;;;;;;;-19.03;49.72;97595.28;6326548;28;20022;-60
2022/01/26 04:47:07;;;;;;;;;;;;;;;-18.83;51.43;97602.38;6322653;28;20380;-63
2022/01/26 04:50:11;;;;;;;;;;;;;;;-18.61;54.38;97599.47;6323912;28;19924;-63
2022/01/26 04:53:14;;;;;;;;;;;;;;;-18.45;56.15;97605.38;6330317;28;20026;-62
2022/01/26 04:56:17;;;;;;;;;;;;;;;-18.32;57.84;97602.81;6337977;28;20316;-62
2022/01/26 04:59:18;;;;;;;;;;;;;;;-18.21;59.03;97603.44;6341068;28;19924;-62
2022/01/26 05:02:22;;;;;;;;;;;;;;;-18.36;58.67;97601.78;6323904;28;20056;-62
2022/01/26 05:05:23;;;;;;;;;;;;;;;-18.43;59.36;97602.19;6315668;28;19928;-61
2022/01/26 05:08:26;;;;;;;;;;;;;;;-18.26;60.27;97602.31;6311589;28;20045;-60
2022/01/26 05:11:39;;;;;;;;;;;;;;;-17.78;60.77;97604.22;6300158;28;19924;-62
2022/01/26 05:14:45;;;;;;;;;;;;;;;-17.67;61.21;97593.09;6303315;28;19924;-61
2022/01/26 05:17:46;;;;;;;;;;;;;;;-17.73;61.69;97587.72;6323732;28;20385;-60
2022/01/26 05:20:47;;;;;;;;;;;;;;;-17.66;62.19;97589.81;6337534;28;19935;-65
2022/01/26 05:23:51;;;;;;;;;;;;;;;-17.55;62.39;97597.06;6327736;28;19924;-65
2022/01/26 05:26:52;;;;;;;;;;;;;;;-17.76;62.00;97582.53;6338615;28;19924;-64
2022/01/26 05:29:55;;;;;;;;;;;;;;;-17.79;62.52;97587.41;6343213;28;20023;-64
2022/01/26 05:32:56;;;;;;;;;;;;;;;-17.66;62.83;97589.81;6344060;28;20450;-64
2022/01/26 05:35:57;;;;;;;;;;;;;;;-17.69;62.19;97584.63;6314759;28;19928;-65
2022/01/26 05:38:58;;;;;;;;;;;;;;;-17.55;62.42;97592.03;6295260;28;19920;-62
2022/01/26 05:42:04;;;;;;;;;;;;;;;-17.43;62.11;97592.72;6311689;28;19982;-62
2022/01/26 05:45:08;;;;;;;;;;;;;;;-17.30;61.98;97587.56;6311471;28;19966;-62
2022/01/26 05:48:14;;;;;;;;;;;;;;;-17.15;61.73;97589.16;6318226;28;19924;-63
2022/01/26 05:51:17;;;;;;;;;;;;;;;-17.04;61.19;97588.09;6311363;28;20325;-64
2022/01/26 05:54:21;;;;;;;;;;;;;;;-16.86;61.40;97598.28;6320387;28;19924;-63
2022/01/26 05:57:22;;;;;;;;;;;;;;;-16.76;60.79;97601.31;6302384;28;20421;-65
2022/01/26 06:00:23;;;;;;;;;;;;;;;-16.66;60.15;97596.78;6310611;28;19930;-65
2022/01/26 06:03:29;;;;;;;;;;;;;;;-16.62;59.59;97593.59;6309443;28;19924;-63
2022/01/26 06:06:32;;;;;;;;;;;;;;;-16.69;59.14;97596.63;6314580;28;19924;-62
2022/01/26 06:09:33;;;;;;;;;;;;;;;-16.72;59.30;97593.94;6319359;28;19924;-63
2022/01/26 06:12:34;;;;;;;;;;;;;;;-16.67;58.87;97589.97;6310415;28;19978;-62
2022/01/26 06:15:40;;;;;;;;;;;;;;;-16.72;58.94;97592.28;6297152;28;20387;-63
2022/01/26 06:18:43;;;;;;;;;;;;;;;-16.65;58.74;97588.41;6296764;28;20416;-63
2022/01/26 06:21:44;;;;;;;;;;;;;;;-16.50;58.61;97584.16;6296340;28;19962;-63
2022/01/26 06:24:45;;;;;;;;;;;;;;;-16.34;58.35;97581.63;6297210;28;19924;-63
2022/01/26 06:27:51;;;;;;;;;;;;;;;-16.05;57.86;97577.16;6308467;28;19924;-63
2022/01/26 06:30:59;;;;;;;;;;;;;;;-15.62;57.75;97575.06;6322093;28;20377;-63
2022/01/26 06:34:02;;;;;;;;;;;;;;;-15.49;57.35;97573.97;6322594;28;19924;-64
2022/01/26 06:37:06;;;;;;;;;;;;;;;-15.50;57.37;97562.16;6308318;28;19925;-62
2022/01/26 06:40:07;;;;;;;;;;;;;;;-15.40;57.26;97568.47;6297294;28;20301;-63
2022/01/26 06:43:14;;;;;;;;;;;;;;;-15.31;57.21;97552.91;6296739;28;19978;-64
2022/01/26 06:46:24;;;;;;;;;;;;;;;-15.14;56.98;97546.09;6320679;28;20377;-63
2022/01/26 06:52:26;;;;;;;;;;;;;;;-14.58;56.08;97553.66;6321681;28;20022;-63
2022/01/26 06:55:30;;;;;;;;;;;;;;;-13.42;55.47;97552.50;6301661;28;19925;-63
2022/01/26 06:58:31;;;;;;;;;;;;;;;-8.36;49.53;97552.09;6313795;28;20012;-63
2022/01/26 07:01:32;;;;;;;;;;;;;;;-2.84;39.84;97547.91;6319710;28;19924;-64
2022/01/26 07:04:33;;;;;;;;;;;;;;;1.23;34.35;97553.72;6320050;28;19924;-63
2022/01/26 07:07:37;;;;;;;;;;;;;;;3.98;30.64;97556.25;6321450;28;20444;-63
2022/01/26 07:10:38;;;;;;;;;;;;;;;6.22;29.03;97559.53;6320745;28;20313;-64
2022/01/26 07:13:40;;;;;;;;;;;;;;;8.21;26.86;97565.50;6321659;28;19928;-64
2022/01/26 07:23:11;;;;;;;;;;;;;;;12.66;24.18;97570.94;6305223;28;19931;-62
2022/01/26 07:26:15;;;;;;;;;;;;;;;13.07;23.95;97564.81;6315327;28;19925;-64
2022/01/26 07:29:24;;;;;;;;;;;;;;;12.95;22.32;97553.25;6314997;28;19928;-63
2022/01/26 07:32:27;;;;;;;;;;;;;;;13.20;22.06;97555.19;6320588;28;19924;-62
2022/01/26 07:35:31;;;;;;;;;;;;;;;13.24;20.50;97546.94;6321117;28;19923;-64
2022/01/26 07:38:34;;;;;;;;;;;;;;;13.16;21.10;97551.88;6321008;28;19930;-63
2022/01/26 07:41:35;;;;;;;;;;;;;;;13.31;19.78;97555.38;6321241;28;20321;-64
2022/01/26 07:44:37;;;;;;;;;;;;;;;13.47;20.24;97550.78;6311691;28;20065;-63
2022/01/26 07:47:38;;;;;;;;;;;;;;;13.87;19.79;97553.41;6320390;28;20030;-63
2022/01/26 07:50:39;;;;;;;;;;;;;;;14.14;19.30;97548.03;6320061;28;20416;-64
2022/01/26 07:53:40;;;;;;;;;;;;;;;14.33;18.30;97552.06;6320388;28;20389;-64
2022/01/26 07:56:45;;;;;;;;;;;;;;;13.87;17.99;97537.53;6320731;28;19924;-64
2022/01/26 07:59:47;;;;;;;;;;;;;;;13.23;16.07;97544.41;6316059;28;19924;-64
2022/01/26 08:02:48;;;;;;;;;;;;;;;12.70;16.22;97532.81;6310576;28;19931;-63
2022/01/26 08:05:50;;;;;;;;;;;;;;;11.43;17.30;97528.97;6319609;28;20014;-64
2022/01/26 08:08:54;;;;;;;;;;;;;;;11.31;16.83;97518.31;6316216;28;19924;-64
2022/01/26 08:11:55;;;;;;;;;;;;;;;10.54;17.46;97512.06;6320075;28;20420;-63
2022/01/26 08:14:56;;;;;;;;;;;;;;;9.86;16.61;97514.75;6319167;28;19924;-63
2022/01/26 08:17:59;;;;;;;;;;;;;;;8.76;18.66;97510.56;6304892;28;19925;-65
2022/01/26 08:21:06;;;;;;;;;;;;;;;8.27;18.31;97518.06;6302875;28;19932;-65
2022/01/26 08:24:14;;;;;;;;;;;;;;;7.53;18.74;97509.94;6302114;28;19924;-64
2022/01/26 08:27:20;;;;;;;;;;;;;;;7.60;17.70;97493.91;6298982;28;19924;-63
2022/01/26 08:30:22;;;;;;;;;;;;;;;6.92;17.48;97481.94;6299992;28;19936;-63
2022/01/26 08:33:25;;;;;;;;;;;;;;;7.02;18.08;97485.88;6299129;28;19924;-67
2022/01/26 08:36:28;;;;;;;;;;;;;;;8.88;16.65;97483.72;6307876;28;20014;-66
2022/01/26 08:39:34;;;;;;;;;;;;;;;10.08;15.68;97482.94;6302490;28;21560;-66
2022/01/26 08:42:42;;;;;;;;;;;;;;;10.64;16.04;97481.66;6311350;28;20438;-62
2022/01/26 08:45:45;;;;;;;;;;;;;;;10.65;14.76;97486.00;6310166;28;19924;-63
2022/01/26 08:48:47;;;;;;;;;;;;;;;9.65;15.75;97483.41;6311863;28;19924;-64
2022/01/26 08:51:53;;;;;;;;;;;;;;;9.36;14.97;97479.63;6313237;28;19924;-65
2022/01/26 08:54:56;;;;;;;;;;;;;;;8.59;15.45;97479.03;6307625;28;20301;-66
2022/01/26 08:57:57;;;;;;;;;;;;;;;8.30;15.98;97470.72;6317516;28;19927;-62
2022/01/26 09:00:59;;;;;;;;;;;;;;;7.76;16.48;97470.53;6317626;28;20416;-61
2022/01/26 09:04:00;;;;;;;;;;;;;;;7.48;16.57;97470.03;6328157;28;19932;-62
2022/01/26 09:07:03;;;;;;;;;;;;;;;6.41;17.17;97472.63;6328209;28;20016;-62
2022/01/26 09:10:06;;;;;;;;;;;;;;;5.56;17.85;97469.63;6338994;28;20393;-62
2022/01/26 09:13:10;;;;;;;;;;;;;;;3.91;18.87;97461.00;6342964;28;19924;-62
2022/01/26 09:16:13;;;;;;;;;;;;;;;3.04;20.07;97451.22;6338291;28;20252;-62
2022/01/26 09:19:26;;;;;;;;;;;;;;;3.33;19.68;97457.41;6340738;28;20305;-61
2022/01/26 09:22:27;;;;;;;;;;;;;;;2.84;20.18;97453.47;6342633;28;19924;-62
2022/01/26 09:25:31;;;;;;;;;;;;;;;1.79;21.17;97450.66;6332279;28;19931;-62
2022/01/26 09:28:34;;;;;;;;;;;;;;;1.10;21.71;97457.19;6338705;28;19924;-62
2022/01/26 09:31:37;;;;;;;;;;;;;;;1.59;21.46;97452.81;6340704;28;19939;-62
2022/01/26 09:34:41;;;;;;;;;;;;;;;0.33;22.98;97448.94;6340895;28;20311;-61
2022/01/26 09:37:43;;;;;;;;;;;;;;;-0.54;23.61;97441.50;6342017;28;19931;-61
2022/01/26 09:40:46;;;;;;;;;;;;;;;-0.28;23.75;97446.34;6340813;28;19923;-62
2022/01/26 09:43:50;;;;;;;;;;;;;;;-0.21;23.72;97441.09;6340808;28;19927;-62
2022/01/26 09:46:56;;;;;;;;;;;;;;;0.53;23.72;97436.53;6344193;28;19928;-61
2022/01/26 09:50:02;;;;;;;;;;;;;;;1.64;22.40;97435.38;6346843;28;19928;-62
2022/01/26 09:53:05;;;;;;;;;;;;;;;1.30;22.87;97445.56;6346940;28;19935;-62
2022/01/26 09:56:08;;;;;;;;;;;;;;;0.46;24.01;97436.69;6325765;28;19924;-62
2022/01/26 09:59:14;;;;;;;;;;;;;;;0.10;24.16;97436.34;6320267;28;20007;-61
2022/01/26 10:02:27;;;;;;;;;;;;;;;-0.42;25.45;97430.16;6301907;28;20313;-61
2022/01/26 10:05:37;;;;;;;;;;;;;;;-0.81;25.60;97428.88;6304806;28;19931;-62
2022/01/26 10:18:23;;;;;;;;;;;;;;;-1.00;25.90;97408.41;6302548;28;19924;-61
2022/01/26 10:21:26;;;;;;;;;;;;;;;-1.07;26.02;97406.78;6318512;28;19927;-62
2022/01/26 10:24:30;;;;;;;;;;;;;;;-0.99;25.17;97409.25;6345745;28;19928;-62
2022/01/26 10:27:35;;;;;;;;;;;;;;;-1.62;26.55;97402.94;6345189;28;19923;-62
2022/01/26 10:30:44;;;;;;;;;;;;;;;-3.11;28.62;97399.47;6346421;28;19927;-61
2022/01/26 10:33:54;;;;;;;;;;;;;;;-4.43;30.94;97397.75;6340960;28;19924;-61
2022/01/26 10:37:00;;;;;;;;;;;;;;;-5.70;32.13;97413.34;6333676;28;19923;-61
2022/01/26 10:40:10;;;;;;;;;;;;;;;-6.49;34.07;97408.41;6312649;28;19924;-61
2022/01/26 10:43:14;;;;;;;;;;;;;;;-6.79;34.26;97414.06;6344503;28;19923;-62
2022/01/26 10:46:30;;;;;;;;;;;;;;;-7.05;35.30;97411.16;6344390;28;20313;-62
2022/01/26 10:49:54;;;;;;;;;;;;;;;-6.98;35.82;97412.97;6313553;28;20003;-62
2022/01/26 10:52:56;;;;;;;;;;;;;;;-7.37;36.77;97424.38;6327677;28;20381;-62
2022/01/26 10:55:57;;;;;;;;;;;;;;;-7.52;37.16;97419.03;6327672;28;19931;-62
2022/01/26 10:58:59;;;;;;;;;;;;;;;-7.74;36.86;97405.94;6333261;28;20610;-63
2022/01/26 11:02:01;;;;;;;;;;;;;;;-7.94;37.78;97425.19;6338741;28;20377;-63
2022/01/26 11:05:02;;;;;;;;;;;;;;;-8.03;37.57;97419.94;6340746;28;20724;-62
2022/01/26 11:08:04;;;;;;;;;;;;;;;-8.13;37.52;97419.78;6308020;28;20293;-64
2022/01/26 11:11:22;;;;;;;;;;;;;;;-8.31;38.21;97419.47;6298756;28;20395;-65
2022/01/26 11:14:23;;;;;;;;;;;;;;;-8.61;38.41;97415.53;6300793;28;19920;-63
2022/01/26 11:17:26;;;;;;;;;;;;;;;-8.90;39.22;97411.59;6304276;28;19928;-64
2022/01/26 11:20:31;;;;;;;;;;;;;;;-9.27;40.21;97406.59;6284200;28;20393;-63
2022/01/26 11:23:40;;;;;;;;;;;;;;;-9.55;40.95;97424.66;6282920;28;19925;-64
2022/01/26 11:26:44;;;;;;;;;;;;;;;-9.90;42.04;97413.66;6279269;28;19936;-64
2022/01/26 11:29:49;;;;;;;;;;;;;;;-10.47;42.89;97408.06;6276133;28;19925;-64
2022/01/26 11:32:55;;;;;;;;;;;;;;;-10.69;44.31;97415.97;6281902;28;20335;-64
2022/01/26 11:36:00;;;;;;;;;;;;;;;-10.97;44.63;97420.28;6281157;28;20015;-64
2022/01/26 11:42:15;;;;;;;;;;;;;;;-11.55;44.27;97405.91;6275094;28;19925;-65
2022/01/26 11:45:42;;;;;;;;;;;;;;;-11.54;44.90;97400.88;6280754;28;20286;-64
2022/01/26 11:48:45;;;;;;;;;;;;;;;-11.61;44.32;97388.81;6285331;28;19931;-65
2022/01/26 11:51:50;;;;;;;;;;;;;;;-11.59;44.77;97409.19;6279494;28;19928;-64
2022/01/26 11:54:53;;;;;;;;;;;;;;;-11.60;44.66;97404.94;6281780;28;20061;-64
2022/01/26 11:58:05;;;;;;;;;;;;;;;-11.71;45.27;97388.53;6278261;28;19924;-63
2022/01/26 12:01:27;;;;;;;;;;;;;;;-11.80;46.21;97386.56;6286639;28;20412;-64
2022/01/26 12:04:34;;;;;;;;;;;;;;;-11.93;47.20;97408.19;6287695;28;19924;-64
2022/01/26 12:07:45;;;;;;;;;;;;;;;-12.09;48.19;97413.59;6285249;28;19925;-62
2022/01/26 12:10:48;;;;;;;;;;;;;;;-12.30;48.14;97407.00;6277288;28;19924;-62
2022/01/26 12:13:57;;;;;;;;;;;;;;;-12.47;48.18;97400.53;6283439;28;19920;-64
2022/01/26 12:16:59;;;;;;;;;;;;;;;-12.36;49.23;97394.13;6290036;28;19928;-61
2022/01/26 12:32:00;;;;;;;;;;;;;;;-12.69;48.99;97383.75;6298584;28;19928;-61
2022/01/26 12:43:32;;;;;;;;;;;;;;;-13.68;51.61;97366.78;6306217;28;19965;-61
2022/01/26 12:46:35;;;;;;;;;;;;;;;-13.67;51.80;97371.06;6305701;28;20068;-58
2022/01/26 12:49:36;;;;;;;;;;;;;;;-13.57;51.65;97383.22;6302160;28;20009;-61
2022/01/26 12:52:38;;;;;;;;;;;;;;;-13.48;51.66;97386.91;6304994;28;19924;-59
2022/01/26 12:55:40;;;;;;;;;;;;;;;-13.40;51.07;97375.38;6309158;28;20025;-61
2022/01/26 12:58:42;;;;;;;;;;;;;;;-13.25;51.27;97365.75;6299196;28;19931;-62
2022/01/26 13:01:46;;;;;;;;;;;;;;;-13.14;51.13;97364.47;6306475;28;20462;-61
2022/01/26 13:04:57;;;;;;;;;;;;;;;-13.16;51.13;97373.72;6304374;28;19924;-56
2022/01/26 13:08:01;;;;;;;;;;;;;;;-13.17;51.48;97363.50;6307599;28;19924;-61
2022/01/26 13:11:03;;;;;;;;;;;;;;;-13.20;52.33;97369.31;6303612;28;19936;-65
2022/01/26 13:14:21;;;;;;;;;;;;;;;-13.49;52.09;97365.81;6287633;28;19928;-63
2022/01/26 13:21:12;;;;;;;;;;;;;;;-13.76;51.99;97355.50;6302946;28;20374;-61
2022/01/26 13:24:10;;;;;;;;;;;;;;;-13.55;52.38;97345.34;6314362;28;20387;-62
2022/01/26 13:28:12;;;;;;;;;;;;;;;-13.46;52.34;97349.88;6308030;28;20278;-62
2022/01/26 13:37:33;;;;;;;;;;;;;;;-13.80;53.72;97358.75;6314699;28;19931;-62
2022/01/26 13:50:20;;;;;;;;;;;;;;;-13.92;55.26;97343.13;6314077;28;20428;-62
2022/01/26 13:54:25;;;;;;;;;;;;;;;-13.96;55.48;97339.59;6307565;28;19924;-62
2022/01/26 13:59:53;;;;;;;;;;;;;;;-14.10;56.30;97328.94;6304026;28;19924;-61
2022/01/26 14:03:00;;;;;;;;;;;;;;;-14.02;56.18;97340.22;6302120;28;19920;-60
2022/01/26 14:06:03;;;;;;;;;;;;;;;-14.21;56.50;97347.91;6309600;28;19924;-61
2022/01/26 14:09:05;;;;;;;;;;;;;;;-14.02;56.80;97337.69;6310714;28;20416;-60
2022/01/26 14:12:12;;;;;;;;;;;;;;;-14.35;56.73;97337.28;6307789;28;19928;-58
2022/01/26 14:15:22;;;;;;;;;;;;;;;-14.52;56.88;97336.66;6314146;28;19924;-61
2022/01/26 14:28:09;;;;;;;;;;;;;;;-14.33;57.31;97314.59;6311079;28;19932;-60
2022/01/26 15:31:16;;;;;;;;;;;;;;;-13.64;57.11;97305.38;6248066;28;20413;-59
2022/01/26 15:40:53;;;;;;;;;;;;;;;-14.03;57.87;97285.41;6241783;28;19924;-62
2022/01/26 15:44:18;;;;;;;;;;;;;;;-14.12;57.99;97271.56;6325294;28;20297;-62
2022/01/26 15:50:47;;;;;;;;;;;;;;;-14.14;58.56;97250.41;6331608;28;20389;-59
2022/01/26 16:26:24;;;;;;;;;;;;;;;-14.44;60.01;97270.34;6320302;28;20377;-62
2022/01/26 16:37:42;;;;;;;;;;;;;;;-15.01;60.94;97270.69;6314344;28;19924;-60
2022/01/26 16:52:32;;;;;;;;;;;;;;;-14.96;61.86;97259.97;6320995;28;19931;-61
2022/01/26 18:13:10;;;;;;;;;;;;;;;-14.40;61.40;97268.00;6273516;28;19928;-59
2022/01/26 18:32:45;;;;;;;;;;;;;;;-14.26;62.30;97228.09;6307889;28;19923;-55
2022/01/26 18:52:07;;;;;;;;;;;;;;;-14.38;62.71;97231.00;6304368;28;20070;-60
2022/01/26 18:55:12;;;;;;;;;;;;;;;-14.42;62.85;97233.38;6309654;28;19919;-64
2022/01/26 18:58:18;;;;;;;;;;;;;;;-14.32;63.07;97245.53;6319057;28;20389;-62
2022/01/26 19:01:22;;;;;;;;;;;;;;;-14.07;63.09;97253.22;6308922;28;19921;-61
2022/01/26 19:04:37;;;;;;;;;;;;;;;-14.12;63.09;97244.63;6304799;28;19924;-63
2022/01/26 19:07:38;;;;;;;;;;;;;;;-14.26;63.51;97250.84;6317605;28;20013;-62
2022/01/26 19:10:39;;;;;;;;;;;;;;;-14.05;63.90;97251.59;6314485;28;19924;-61
2022/01/26 19:13:42;;;;;;;;;;;;;;;-13.86;63.05;97247.22;6297619;28;20025;-62
2022/01/26 19:16:53;;;;;;;;;;;;;;;-13.97;62.99;97243.44;6305160;28;19951;-61
2022/01/26 19:20:09;;;;;;;;;;;;;;;-13.92;63.40;97229.31;6321598;28;20348;-61
2022/01/26 19:26:36;;;;;;;;;;;;;;;-13.83;63.38;97233.00;6299872;28;19924;-61
2022/01/26 19:52:34;;;;;;;;;;;;;;;-13.50;63.21;97250.19;6296756;28;20008;-61
2022/01/26 19:55:37;;;;;;;;;;;;;;;-13.70;63.80;97244.44;6303643;28;20313;-62
2022/01/26 19:58:38;;;;;;;;;;;;;;;-13.86;64.52;97249.75;6313713;28;19931;-61
2022/01/26 20:01:43;;;;;;;;;;;;;;;-13.67;64.00;97258.84;6313063;28;20436;-62
2022/01/26 20:04:45;;;;;;;;;;;;;;;-13.65;64.38;97257.22;6309068;28;19931;-61
2022/01/26 20:07:50;;;;;;;;;;;;;;;-13.98;64.65;97251.81;6305797;28;19985;-61
2022/01/26 20:10:56;;;;;;;;;;;;;;;-13.71;64.84;97241.84;6308757;28;19924;-61
2022/01/26 20:14:01;;;;;;;;;;;;;;;-14.05;64.87;97241.50;6319542;28;20018;-62
2022/01/26 20:17:05;;;;;;;;;;;;;;;-14.13;65.39;97245.41;6326448;28;19924;-60
2022/01/26 20:20:12;;;;;;;;;;;;;;;-13.91;65.11;97252.13;6316661;28;19927;-61
2022/01/26 20:23:16;;;;;;;;;;;;;;;-14.06;65.69;97259.16;6330515;28;19932;-61
2022/01/26 20:26:17;;;;;;;;;;;;;;;-14.19;66.21;97251.91;6307884;28;20385;-61
2022/01/26 20:29:26;;;;;;;;;;;;;;;-14.25;66.54;97248.34;6323482;28;19931;-61
2022/01/26 20:32:28;;;;;;;;;;;;;;;-13.73;65.93;97245.97;6306894;28;19924;-61
2022/01/26 20:35:29;;;;;;;;;;;;;;;-13.66;65.90;97255.53;6316066;28;20377;-61
2022/01/26 20:38:31;;;;;;;;;;;;;;;-13.97;65.89;97251.03;6313677;28;20397;-61
2022/01/26 20:41:34;;;;;;;;;;;;;;;-13.88;65.99;97264.00;6314249;28;20366;-61
2022/01/26 20:44:35;;;;;;;;;;;;;;;-13.68;66.72;97252.91;6311978;28;19928;-61
2022/01/26 20:47:40;;;;;;;;;;;;;;;-13.54;65.80;97250.03;6306796;28;19924;-60
2022/01/26 20:50:43;;;;;;;;;;;;;;;-13.45;66.04;97250.31;6316906;28;19924;-61
2022/01/26 20:53:45;;;;;;;;;;;;;;;-13.48;66.62;97255.28;6310662;28;19931;-61
2022/01/26 20:56:46;;;;;;;;;;;;;;;-13.47;66.09;97251.94;6310343;28;20301;-60
2022/01/26 20:59:49;;;;;;;;;;;;;;;-13.37;66.12;97261.59;6310208;28;19924;-60
2022/01/26 21:02:53;;;;;;;;;;;;;;;-13.28;66.35;97248.38;6312639;28;20476;-60
2022/01/26 21:05:54;;;;;;;;;;;;;;;-13.30;66.58;97255.94;6311790;28;20432;-60
2022/01/26 21:08:56;;;;;;;;;;;;;;;-13.20;67.30;97255.38;6313597;28;19928;-61
2022/01/26 21:11:59;;;;;;;;;;;;;;;-13.11;67.21;97253.16;6311248;28;19935;-61
2022/01/26 21:15:00;;;;;;;;;;;;;;;-13.14;66.55;97270.78;6315693;28;19935;-61
2022/01/26 21:18:03;;;;;;;;;;;;;;;-12.92;66.44;97274.03;6310766;28;20335;-60
2022/01/26 21:21:06;;;;;;;;;;;;;;;-13.12;67.05;97260.72;6310395;28;20408;-61
2022/01/26 21:24:07;;;;;;;;;;;;;;;-13.12;66.94;97241.31;6308197;28;19924;-61
2022/01/26 21:27:09;;;;;;;;;;;;;;;-13.01;66.79;97245.88;6307707;28;19920;-61
2022/01/26 21:30:13;;;;;;;;;;;;;;;-13.01;66.76;97254.31;6310662;28;20449;-61
2022/01/26 21:33:14;;;;;;;;;;;;;;;-12.86;66.41;97256.47;6310012;28;19924;-61
2022/01/26 21:36:16;;;;;;;;;;;;;;;-13.13;66.36;97264.91;6311420;28;20010;-61
2022/01/26 21:39:16;;;;;;;;;;;;;;;-13.17;66.65;97260.53;6317764;28;20309;-62
2022/01/26 21:42:18;;;;;;;;;;;;;;;-13.23;66.86;97259.50;6315844;28;19924;-61
2022/01/26 21:45:20;;;;;;;;;;;;;;;-13.55;67.10;97250.84;6312126;28;19924;-60
2022/01/26 21:48:26;;;;;;;;;;;;;;;-13.65;67.71;97260.63;6315846;28;19924;-60
2022/01/26 21:51:28;;;;;;;;;;;;;;;-13.87;67.60;97261.56;6308903;28;19924;-60
2022/01/26 21:54:29;;;;;;;;;;;;;;;-13.83;68.03;97260.84;6315820;28;20405;-61
2022/01/26 21:57:32;;;;;;;;;;;;;;;-13.82;68.15;97259.16;6312698;28;19924;-60
2022/01/26 22:00:33;;;;;;;;;;;;;;;-13.98;67.95;97256.88;6314471;28;19924;-60
2022/01/26 22:03:34;;;;;;;;;;;;;;;-13.94;68.27;97258.72;6310400;28;19930;-60
2022/01/26 22:06:35;;;;;;;;;;;;;;;-14.25;68.80;97247.50;6310507;28;19924;-60
2022/01/26 22:09:37;;;;;;;;;;;;;;;-14.13;68.88;97260.56;6312125;28;19978;-62
2022/01/26 22:12:43;;;;;;;;;;;;;;;-14.15;68.95;97249.56;6314760;28;19928;-61
2022/01/26 22:15:44;;;;;;;;;;;;;;;-14.22;68.77;97247.59;6314043;28;19924;-62
2022/01/26 22:18:45;;;;;;;;;;;;;;;-14.48;69.12;97255.06;6318038;28;20408;-61
2022/01/26 22:21:51;;;;;;;;;;;;;;;-14.38;69.51;97251.22;6314169;28;19924;-61
2022/01/26 22:24:53;;;;;;;;;;;;;;;-14.53;70.21;97246.47;6292172;28;19932;-62
2022/01/26 22:27:55;;;;;;;;;;;;;;;-14.32;69.49;97246.41;6311758;28;19931;-62
2022/01/26 22:30:56;;;;;;;;;;;;;;;-14.42;68.92;97241.81;6307719;28;19925;-61
2022/01/26 22:33:58;;;;;;;;;;;;;;;-14.35;69.63;97230.25;6304726;28;19928;-61
2022/01/26 22:37:06;;;;;;;;;;;;;;;-14.41;69.35;97241.00;6293220;28;19924;-60
2022/01/26 22:40:07;;;;;;;;;;;;;;;-14.42;69.40;97231.69;6301842;28;19931;-61
2022/01/26 22:43:12;;;;;;;;;;;;;;;-14.43;70.02;97234.16;6300761;28;20488;-60
2022/01/26 22:46:15;;;;;;;;;;;;;;;-14.52;70.24;97228.00;6303485;28;19928;-61
2022/01/26 22:49:16;;;;;;;;;;;;;;;-14.70;70.29;97227.28;6308264;28;19924;-61
2022/01/26 22:52:19;;;;;;;;;;;;;;;-14.67;70.17;97234.97;6317270;28;20448;-62
2022/01/26 22:55:26;;;;;;;;;;;;;;;-14.65;70.60;97230.84;6312620;28;19930;-60
2022/01/26 22:58:29;;;;;;;;;;;;;;;-14.67;71.04;97237.50;6313522;28;19924;-60